<?xml version="1.0" encoding="UTF-8" standalone="no" ?>
<gpx xmlns="http://www.topografix.com/GPX/1/1" xmlns:xsi="http://www.w3.org/2001/XMLSchema-instance" xsi:schemaLocation="http://www.topografix.com/GPX/1/1 http://www.topografix.com/GPX/1/1/gpx.xsd" version="1.1" creator="VisuGPX - https://www.visugpx.com">
  <metadata>
    <name>trail long 2016</name>
    <desc><![CDATA[trail long Landudal 2016]]></desc>
  </metadata>
  <trk>
    <name><![CDATA[OR-6082994--Landudal:Trail long 2016]]></name>
    <trkseg>
      <trkpt lat="48.06375" lon="-3.9764">
        <ele>122</ele>
        <time>2016-06-15T17:51:28Z</time>
      </trkpt>
      <trkpt lat="48.06375" lon="-3.97572">
        <ele>123</ele>
        <time>2016-06-15T17:53:28Z</time>
      </trkpt>
      <trkpt lat="48.06277" lon="-3.97544">
        <ele>122</ele>
        <time>2016-06-15T17:55:28Z</time>
      </trkpt>
      <trkpt lat="48.06259" lon="-3.97628">
        <ele>122</ele>
        <time>2016-06-15T17:57:28Z</time>
      </trkpt>
      <trkpt lat="48.06237" lon="-3.97765">
        <ele>119</ele>
        <time>2016-06-15T17:59:28Z</time>
      </trkpt>
      <trkpt lat="48.06164" lon="-3.97759">
        <ele>118</ele>
        <time>2016-06-15T18:01:28Z</time>
      </trkpt>
      <trkpt lat="48.06003" lon="-3.97638">
        <ele>110</ele>
        <time>2016-06-15T18:03:28Z</time>
      </trkpt>
      <trkpt lat="48.06056" lon="-3.97532">
        <ele>110</ele>
        <time>2016-06-15T18:05:28Z</time>
      </trkpt>
      <trkpt lat="48.06134" lon="-3.9736">
        <ele>110</ele>
        <time>2016-06-15T18:07:28Z</time>
      </trkpt>
      <trkpt lat="48.06176" lon="-3.97259">
        <ele>107</ele>
        <time>2016-06-15T18:09:28Z</time>
      </trkpt>
      <trkpt lat="48.06171" lon="-3.97233">
        <ele>106</ele>
        <time>2016-06-15T18:11:28Z</time>
      </trkpt>
      <trkpt lat="48.06128" lon="-3.97229">
        <ele>105</ele>
        <time>2016-06-15T18:13:28Z</time>
      </trkpt>
      <trkpt lat="48.06049" lon="-3.97202">
        <ele>103</ele>
        <time>2016-06-15T18:15:28Z</time>
      </trkpt>
      <trkpt lat="48.05945" lon="-3.97227">
        <ele>96</ele>
        <time>2016-06-15T18:17:28Z</time>
      </trkpt>
      <trkpt lat="48.05875" lon="-3.97159">
        <ele>93</ele>
        <time>2016-06-15T18:19:28Z</time>
      </trkpt>
      <trkpt lat="48.05659" lon="-3.97184">
        <ele>82</ele>
        <time>2016-06-15T18:21:28Z</time>
      </trkpt>
      <trkpt lat="48.05667" lon="-3.97055">
        <ele>83</ele>
        <time>2016-06-15T18:23:28Z</time>
      </trkpt>
      <trkpt lat="48.05686" lon="-3.96994">
        <ele>85</ele>
        <time>2016-06-15T18:25:28Z</time>
      </trkpt>
      <trkpt lat="48.05717" lon="-3.96944">
        <ele>88</ele>
        <time>2016-06-15T18:27:28Z</time>
      </trkpt>
      <trkpt lat="48.0573" lon="-3.96903">
        <ele>90</ele>
        <time>2016-06-15T18:29:28Z</time>
      </trkpt>
      <trkpt lat="48.05755" lon="-3.96875">
        <ele>93</ele>
        <time>2016-06-15T18:31:28Z</time>
      </trkpt>
      <trkpt lat="48.05766" lon="-3.96831">
        <ele>96</ele>
        <time>2016-06-15T18:33:28Z</time>
      </trkpt>
      <trkpt lat="48.05795" lon="-3.96795">
        <ele>96</ele>
        <time>2016-06-15T18:35:28Z</time>
      </trkpt>
      <trkpt lat="48.05796" lon="-3.96768">
        <ele>97</ele>
        <time>2016-06-15T18:37:28Z</time>
      </trkpt>
      <trkpt lat="48.05854" lon="-3.96673">
        <ele>100</ele>
        <time>2016-06-15T18:39:28Z</time>
      </trkpt>
      <trkpt lat="48.05912" lon="-3.96613">
        <ele>99</ele>
        <time>2016-06-15T18:41:28Z</time>
      </trkpt>
      <trkpt lat="48.05948" lon="-3.96539">
        <ele>104</ele>
        <time>2016-06-15T18:43:28Z</time>
      </trkpt>
      <trkpt lat="48.05925" lon="-3.96496">
        <ele>109</ele>
        <time>2016-06-15T18:45:28Z</time>
      </trkpt>
      <trkpt lat="48.05869" lon="-3.96481">
        <ele>112</ele>
        <time>2016-06-15T18:47:28Z</time>
      </trkpt>
      <trkpt lat="48.05841" lon="-3.96474">
        <ele>113</ele>
        <time>2016-06-15T18:49:28Z</time>
      </trkpt>
      <trkpt lat="48.05819" lon="-3.96434">
        <ele>113</ele>
        <time>2016-06-15T18:51:28Z</time>
      </trkpt>
      <trkpt lat="48.05798" lon="-3.9638">
        <ele>113</ele>
        <time>2016-06-15T18:53:28Z</time>
      </trkpt>
      <trkpt lat="48.05788" lon="-3.96341">
        <ele>113</ele>
        <time>2016-06-15T18:55:28Z</time>
      </trkpt>
      <trkpt lat="48.05766" lon="-3.96345">
        <ele>111</ele>
        <time>2016-06-15T18:57:28Z</time>
      </trkpt>
      <trkpt lat="48.05748" lon="-3.9636">
        <ele>110</ele>
        <time>2016-06-15T18:59:28Z</time>
      </trkpt>
      <trkpt lat="48.05742" lon="-3.9637">
        <ele>110</ele>
        <time>2016-06-15T19:01:28Z</time>
      </trkpt>
      <trkpt lat="48.05736" lon="-3.96373">
        <ele>110</ele>
        <time>2016-06-15T19:03:28Z</time>
      </trkpt>
      <trkpt lat="48.05731" lon="-3.96371">
        <ele>109</ele>
        <time>2016-06-15T19:05:28Z</time>
      </trkpt>
      <trkpt lat="48.05726" lon="-3.96365">
        <ele>109</ele>
        <time>2016-06-15T19:07:28Z</time>
      </trkpt>
      <trkpt lat="48.05721" lon="-3.9637">
        <ele>108</ele>
        <time>2016-06-15T19:09:28Z</time>
      </trkpt>
      <trkpt lat="48.05718" lon="-3.96377">
        <ele>108</ele>
        <time>2016-06-15T19:11:28Z</time>
      </trkpt>
      <trkpt lat="48.05713" lon="-3.96382">
        <ele>108</ele>
        <time>2016-06-15T19:13:28Z</time>
      </trkpt>
      <trkpt lat="48.0571" lon="-3.96373">
        <ele>107</ele>
        <time>2016-06-15T19:15:28Z</time>
      </trkpt>
      <trkpt lat="48.05708" lon="-3.96363">
        <ele>107</ele>
        <time>2016-06-15T19:17:28Z</time>
      </trkpt>
      <trkpt lat="48.05709" lon="-3.96351">
        <ele>107</ele>
        <time>2016-06-15T19:19:28Z</time>
      </trkpt>
      <trkpt lat="48.0571" lon="-3.96338">
        <ele>107</ele>
        <time>2016-06-15T19:21:28Z</time>
      </trkpt>
      <trkpt lat="48.05709" lon="-3.96324">
        <ele>107</ele>
        <time>2016-06-15T19:23:28Z</time>
      </trkpt>
      <trkpt lat="48.05704" lon="-3.96311">
        <ele>107</ele>
        <time>2016-06-15T19:25:28Z</time>
      </trkpt>
      <trkpt lat="48.05694" lon="-3.96299">
        <ele>107</ele>
        <time>2016-06-15T19:27:28Z</time>
      </trkpt>
      <trkpt lat="48.05686" lon="-3.96291">
        <ele>107</ele>
        <time>2016-06-15T19:29:28Z</time>
      </trkpt>
      <trkpt lat="48.05676" lon="-3.9629">
        <ele>106</ele>
        <time>2016-06-15T19:31:28Z</time>
      </trkpt>
      <trkpt lat="48.05667" lon="-3.96295">
        <ele>105</ele>
        <time>2016-06-15T19:33:28Z</time>
      </trkpt>
      <trkpt lat="48.0566" lon="-3.96304">
        <ele>105</ele>
        <time>2016-06-15T19:35:28Z</time>
      </trkpt>
      <trkpt lat="48.05639" lon="-3.96326">
        <ele>102</ele>
        <time>2016-06-15T19:37:28Z</time>
      </trkpt>
      <trkpt lat="48.0563" lon="-3.96338">
        <ele>102</ele>
        <time>2016-06-15T19:39:28Z</time>
      </trkpt>
      <trkpt lat="48.05618" lon="-3.96351">
        <ele>101</ele>
        <time>2016-06-15T19:41:28Z</time>
      </trkpt>
      <trkpt lat="48.05606" lon="-3.9636">
        <ele>100</ele>
        <time>2016-06-15T19:43:28Z</time>
      </trkpt>
      <trkpt lat="48.05595" lon="-3.96367">
        <ele>99</ele>
        <time>2016-06-15T19:45:28Z</time>
      </trkpt>
      <trkpt lat="48.05584" lon="-3.96373">
        <ele>98</ele>
        <time>2016-06-15T19:47:28Z</time>
      </trkpt>
      <trkpt lat="48.05577" lon="-3.96383">
        <ele>97</ele>
        <time>2016-06-15T19:49:28Z</time>
      </trkpt>
      <trkpt lat="48.05571" lon="-3.96395">
        <ele>97</ele>
        <time>2016-06-15T19:51:28Z</time>
      </trkpt>
      <trkpt lat="48.05561" lon="-3.96399">
        <ele>96</ele>
        <time>2016-06-15T19:53:28Z</time>
      </trkpt>
      <trkpt lat="48.05549" lon="-3.96418">
        <ele>95</ele>
        <time>2016-06-15T19:55:28Z</time>
      </trkpt>
      <trkpt lat="48.05543" lon="-3.9644">
        <ele>94</ele>
        <time>2016-06-15T19:57:28Z</time>
      </trkpt>
      <trkpt lat="48.05529" lon="-3.96467">
        <ele>93</ele>
        <time>2016-06-15T19:59:28Z</time>
      </trkpt>
      <trkpt lat="48.05492" lon="-3.96469">
        <ele>91</ele>
        <time>2016-06-15T20:01:28Z</time>
      </trkpt>
      <trkpt lat="48.05458" lon="-3.96461">
        <ele>90</ele>
        <time>2016-06-15T20:03:28Z</time>
      </trkpt>
      <trkpt lat="48.05433" lon="-3.96438">
        <ele>90</ele>
        <time>2016-06-15T20:05:28Z</time>
      </trkpt>
      <trkpt lat="48.05395" lon="-3.96205">
        <ele>93</ele>
        <time>2016-06-15T20:07:28Z</time>
      </trkpt>
      <trkpt lat="48.05363" lon="-3.96219">
        <ele>96</ele>
        <time>2016-06-15T20:09:28Z</time>
      </trkpt>
      <trkpt lat="48.05317" lon="-3.96228">
        <ele>101</ele>
        <time>2016-06-15T20:11:28Z</time>
      </trkpt>
      <trkpt lat="48.05277" lon="-3.9623">
        <ele>108</ele>
        <time>2016-06-15T20:13:28Z</time>
      </trkpt>
      <trkpt lat="48.05227" lon="-3.9623">
        <ele>116</ele>
        <time>2016-06-15T20:15:28Z</time>
      </trkpt>
      <trkpt lat="48.05251" lon="-3.96211">
        <ele>114</ele>
        <time>2016-06-15T20:17:28Z</time>
      </trkpt>
      <trkpt lat="48.05275" lon="-3.96198">
        <ele>109</ele>
        <time>2016-06-15T20:19:28Z</time>
      </trkpt>
      <trkpt lat="48.05268" lon="-3.96157">
        <ele>112</ele>
        <time>2016-06-15T20:21:28Z</time>
      </trkpt>
      <trkpt lat="48.0527" lon="-3.96105">
        <ele>111</ele>
        <time>2016-06-15T20:23:28Z</time>
      </trkpt>
      <trkpt lat="48.05274" lon="-3.96047">
        <ele>108</ele>
        <time>2016-06-15T20:25:28Z</time>
      </trkpt>
      <trkpt lat="48.05275" lon="-3.96005">
        <ele>106</ele>
        <time>2016-06-15T20:27:28Z</time>
      </trkpt>
      <trkpt lat="48.05268" lon="-3.95966">
        <ele>106</ele>
        <time>2016-06-15T20:29:28Z</time>
      </trkpt>
      <trkpt lat="48.05256" lon="-3.9595">
        <ele>107</ele>
        <time>2016-06-15T20:31:28Z</time>
      </trkpt>
      <trkpt lat="48.05232" lon="-3.95955">
        <ele>111</ele>
        <time>2016-06-15T20:33:28Z</time>
      </trkpt>
      <trkpt lat="48.05243" lon="-3.95943">
        <ele>109</ele>
        <time>2016-06-15T20:35:28Z</time>
      </trkpt>
      <trkpt lat="48.05263" lon="-3.95927">
        <ele>105</ele>
        <time>2016-06-15T20:37:28Z</time>
      </trkpt>
      <trkpt lat="48.05282" lon="-3.95928">
        <ele>102</ele>
        <time>2016-06-15T20:39:28Z</time>
      </trkpt>
      <trkpt lat="48.05296" lon="-3.95929">
        <ele>99</ele>
        <time>2016-06-15T20:41:28Z</time>
      </trkpt>
      <trkpt lat="48.05311" lon="-3.95932">
        <ele>97</ele>
        <time>2016-06-15T20:43:28Z</time>
      </trkpt>
      <trkpt lat="48.05311" lon="-3.95951">
        <ele>98</ele>
        <time>2016-06-15T20:45:28Z</time>
      </trkpt>
      <trkpt lat="48.0531" lon="-3.95982">
        <ele>99</ele>
        <time>2016-06-15T20:47:28Z</time>
      </trkpt>
      <trkpt lat="48.05337" lon="-3.96074">
        <ele>95</ele>
        <time>2016-06-15T20:49:28Z</time>
      </trkpt>
      <trkpt lat="48.05335" lon="-3.96089">
        <ele>95</ele>
        <time>2016-06-15T20:51:28Z</time>
      </trkpt>
      <trkpt lat="48.05337" lon="-3.96107">
        <ele>96</ele>
        <time>2016-06-15T20:53:28Z</time>
      </trkpt>
      <trkpt lat="48.05344" lon="-3.9612">
        <ele>96</ele>
        <time>2016-06-15T20:55:28Z</time>
      </trkpt>
      <trkpt lat="48.05348" lon="-3.96134">
        <ele>96</ele>
        <time>2016-06-15T20:57:28Z</time>
      </trkpt>
      <trkpt lat="48.05349" lon="-3.96156">
        <ele>96</ele>
        <time>2016-06-15T20:59:28Z</time>
      </trkpt>
      <trkpt lat="48.05354" lon="-3.96159">
        <ele>96</ele>
        <time>2016-06-15T21:01:28Z</time>
      </trkpt>
      <trkpt lat="48.05364" lon="-3.96144">
        <ele>95</ele>
        <time>2016-06-15T21:03:28Z</time>
      </trkpt>
      <trkpt lat="48.05368" lon="-3.96131">
        <ele>95</ele>
        <time>2016-06-15T21:05:28Z</time>
      </trkpt>
      <trkpt lat="48.05374" lon="-3.96131">
        <ele>95</ele>
        <time>2016-06-15T21:07:28Z</time>
      </trkpt>
      <trkpt lat="48.05381" lon="-3.96136">
        <ele>94</ele>
        <time>2016-06-15T21:09:28Z</time>
      </trkpt>
      <trkpt lat="48.05387" lon="-3.96136">
        <ele>94</ele>
        <time>2016-06-15T21:11:28Z</time>
      </trkpt>
      <trkpt lat="48.05396" lon="-3.96126">
        <ele>94</ele>
        <time>2016-06-15T21:13:28Z</time>
      </trkpt>
      <trkpt lat="48.05399" lon="-3.96093">
        <ele>95</ele>
        <time>2016-06-15T21:15:28Z</time>
      </trkpt>
      <trkpt lat="48.05409" lon="-3.96049">
        <ele>96</ele>
        <time>2016-06-15T21:17:28Z</time>
      </trkpt>
      <trkpt lat="48.05418" lon="-3.95984">
        <ele>100</ele>
        <time>2016-06-15T21:19:28Z</time>
      </trkpt>
      <trkpt lat="48.05431" lon="-3.95935">
        <ele>104</ele>
        <time>2016-06-15T21:21:28Z</time>
      </trkpt>
      <trkpt lat="48.05466" lon="-3.95862">
        <ele>110</ele>
        <time>2016-06-15T21:23:28Z</time>
      </trkpt>
      <trkpt lat="48.05483" lon="-3.95827">
        <ele>114</ele>
        <time>2016-06-15T21:25:28Z</time>
      </trkpt>
      <trkpt lat="48.05492" lon="-3.958">
        <ele>116</ele>
        <time>2016-06-15T21:27:28Z</time>
      </trkpt>
      <trkpt lat="48.05501" lon="-3.95775">
        <ele>118</ele>
        <time>2016-06-15T21:29:28Z</time>
      </trkpt>
      <trkpt lat="48.0551" lon="-3.95746">
        <ele>119</ele>
        <time>2016-06-15T21:31:28Z</time>
      </trkpt>
      <trkpt lat="48.05516" lon="-3.95739">
        <ele>119</ele>
        <time>2016-06-15T21:33:28Z</time>
      </trkpt>
      <trkpt lat="48.05526" lon="-3.95738">
        <ele>120</ele>
        <time>2016-06-15T21:35:28Z</time>
      </trkpt>
      <trkpt lat="48.0554" lon="-3.95739">
        <ele>121</ele>
        <time>2016-06-15T21:37:28Z</time>
      </trkpt>
      <trkpt lat="48.05553" lon="-3.95741">
        <ele>122</ele>
        <time>2016-06-15T21:39:28Z</time>
      </trkpt>
      <trkpt lat="48.05559" lon="-3.95745">
        <ele>123</ele>
        <time>2016-06-15T21:41:28Z</time>
      </trkpt>
      <trkpt lat="48.05566" lon="-3.95745">
        <ele>123</ele>
        <time>2016-06-15T21:43:28Z</time>
      </trkpt>
      <trkpt lat="48.05573" lon="-3.95743">
        <ele>124</ele>
        <time>2016-06-15T21:45:28Z</time>
      </trkpt>
      <trkpt lat="48.05586" lon="-3.95736">
        <ele>125</ele>
        <time>2016-06-15T21:47:28Z</time>
      </trkpt>
      <trkpt lat="48.05612" lon="-3.95737">
        <ele>127</ele>
        <time>2016-06-15T21:49:28Z</time>
      </trkpt>
      <trkpt lat="48.05641" lon="-3.9574">
        <ele>128</ele>
        <time>2016-06-15T21:51:28Z</time>
      </trkpt>
      <trkpt lat="48.05667" lon="-3.95744">
        <ele>130</ele>
        <time>2016-06-15T21:53:28Z</time>
      </trkpt>
      <trkpt lat="48.05723" lon="-3.95746">
        <ele>133</ele>
        <time>2016-06-15T21:55:28Z</time>
      </trkpt>
      <trkpt lat="48.05758" lon="-3.95753">
        <ele>134</ele>
        <time>2016-06-15T21:57:28Z</time>
      </trkpt>
      <trkpt lat="48.05786" lon="-3.95761">
        <ele>133</ele>
        <time>2016-06-15T21:59:28Z</time>
      </trkpt>
      <trkpt lat="48.05815" lon="-3.95767">
        <ele>133</ele>
        <time>2016-06-15T22:01:28Z</time>
      </trkpt>
      <trkpt lat="48.05949" lon="-3.95792">
        <ele>133</ele>
        <time>2016-06-15T22:03:28Z</time>
      </trkpt>
      <trkpt lat="48.05969" lon="-3.95796">
        <ele>134</ele>
        <time>2016-06-15T22:05:28Z</time>
      </trkpt>
      <trkpt lat="48.0598" lon="-3.95792">
        <ele>134</ele>
        <time>2016-06-15T22:07:28Z</time>
      </trkpt>
      <trkpt lat="48.05998" lon="-3.95783">
        <ele>135</ele>
        <time>2016-06-15T22:09:28Z</time>
      </trkpt>
      <trkpt lat="48.06036" lon="-3.9576">
        <ele>136</ele>
        <time>2016-06-15T22:11:28Z</time>
      </trkpt>
      <trkpt lat="48.06132" lon="-3.95718">
        <ele>137</ele>
        <time>2016-06-15T22:13:28Z</time>
      </trkpt>
      <trkpt lat="48.06107" lon="-3.95706">
        <ele>137</ele>
        <time>2016-06-15T22:15:28Z</time>
      </trkpt>
      <trkpt lat="48.06077" lon="-3.95692">
        <ele>136</ele>
        <time>2016-06-15T22:17:28Z</time>
      </trkpt>
      <trkpt lat="48.06051" lon="-3.9568">
        <ele>135</ele>
        <time>2016-06-15T22:19:28Z</time>
      </trkpt>
      <trkpt lat="48.06025" lon="-3.95669">
        <ele>135</ele>
        <time>2016-06-15T22:21:28Z</time>
      </trkpt>
      <trkpt lat="48.06011" lon="-3.95641">
        <ele>134</ele>
        <time>2016-06-15T22:23:28Z</time>
      </trkpt>
      <trkpt lat="48.06003" lon="-3.95579">
        <ele>132</ele>
        <time>2016-06-15T22:25:28Z</time>
      </trkpt>
      <trkpt lat="48.05994" lon="-3.95536">
        <ele>131</ele>
        <time>2016-06-15T22:27:28Z</time>
      </trkpt>
      <trkpt lat="48.05986" lon="-3.95503">
        <ele>129</ele>
        <time>2016-06-15T22:29:28Z</time>
      </trkpt>
      <trkpt lat="48.05979" lon="-3.95472">
        <ele>127</ele>
        <time>2016-06-15T22:31:28Z</time>
      </trkpt>
      <trkpt lat="48.0597" lon="-3.95458">
        <ele>125</ele>
        <time>2016-06-15T22:33:28Z</time>
      </trkpt>
      <trkpt lat="48.0595" lon="-3.95454">
        <ele>124</ele>
        <time>2016-06-15T22:35:28Z</time>
      </trkpt>
      <trkpt lat="48.05926" lon="-3.95446">
        <ele>122</ele>
        <time>2016-06-15T22:37:28Z</time>
      </trkpt>
      <trkpt lat="48.05902" lon="-3.95438">
        <ele>121</ele>
        <time>2016-06-15T22:39:28Z</time>
      </trkpt>
      <trkpt lat="48.05859" lon="-3.95413">
        <ele>118</ele>
        <time>2016-06-15T22:41:28Z</time>
      </trkpt>
      <trkpt lat="48.05868" lon="-3.95392">
        <ele>117</ele>
        <time>2016-06-15T22:43:28Z</time>
      </trkpt>
      <trkpt lat="48.05879" lon="-3.95379">
        <ele>117</ele>
        <time>2016-06-15T22:45:28Z</time>
      </trkpt>
      <trkpt lat="48.05888" lon="-3.9537">
        <ele>117</ele>
        <time>2016-06-15T22:47:28Z</time>
      </trkpt>
      <trkpt lat="48.05884" lon="-3.95352">
        <ele>116</ele>
        <time>2016-06-15T22:49:28Z</time>
      </trkpt>
      <trkpt lat="48.05873" lon="-3.95324">
        <ele>114</ele>
        <time>2016-06-15T22:51:28Z</time>
      </trkpt>
      <trkpt lat="48.05859" lon="-3.95289">
        <ele>112</ele>
        <time>2016-06-15T22:53:28Z</time>
      </trkpt>
      <trkpt lat="48.05851" lon="-3.95247">
        <ele>110</ele>
        <time>2016-06-15T22:55:28Z</time>
      </trkpt>
      <trkpt lat="48.05851" lon="-3.95194">
        <ele>109</ele>
        <time>2016-06-15T22:57:28Z</time>
      </trkpt>
      <trkpt lat="48.05861" lon="-3.95158">
        <ele>109</ele>
        <time>2016-06-15T22:59:28Z</time>
      </trkpt>
      <trkpt lat="48.05891" lon="-3.95147">
        <ele>111</ele>
        <time>2016-06-15T23:01:28Z</time>
      </trkpt>
      <trkpt lat="48.05924" lon="-3.95133">
        <ele>111</ele>
        <time>2016-06-15T23:03:28Z</time>
      </trkpt>
      <trkpt lat="48.05939" lon="-3.95112">
        <ele>109</ele>
        <time>2016-06-15T23:05:28Z</time>
      </trkpt>
      <trkpt lat="48.05926" lon="-3.95071">
        <ele>103</ele>
        <time>2016-06-15T23:07:28Z</time>
      </trkpt>
      <trkpt lat="48.05913" lon="-3.95036">
        <ele>100</ele>
        <time>2016-06-15T23:09:28Z</time>
      </trkpt>
      <trkpt lat="48.05901" lon="-3.95006">
        <ele>99</ele>
        <time>2016-06-15T23:11:28Z</time>
      </trkpt>
      <trkpt lat="48.05889" lon="-3.94974">
        <ele>101</ele>
        <time>2016-06-15T23:13:28Z</time>
      </trkpt>
      <trkpt lat="48.05894" lon="-3.94953">
        <ele>102</ele>
        <time>2016-06-15T23:15:28Z</time>
      </trkpt>
      <trkpt lat="48.05904" lon="-3.94959">
        <ele>101</ele>
        <time>2016-06-15T23:17:28Z</time>
      </trkpt>
      <trkpt lat="48.05922" lon="-3.94965">
        <ele>101</ele>
        <time>2016-06-15T23:19:28Z</time>
      </trkpt>
      <trkpt lat="48.05927" lon="-3.94952">
        <ele>101</ele>
        <time>2016-06-15T23:21:28Z</time>
      </trkpt>
      <trkpt lat="48.05939" lon="-3.94941">
        <ele>102</ele>
        <time>2016-06-15T23:23:28Z</time>
      </trkpt>
      <trkpt lat="48.05952" lon="-3.94929">
        <ele>102</ele>
        <time>2016-06-15T23:25:28Z</time>
      </trkpt>
      <trkpt lat="48.05954" lon="-3.949">
        <ele>105</ele>
        <time>2016-06-15T23:27:28Z</time>
      </trkpt>
      <trkpt lat="48.05966" lon="-3.949">
        <ele>104</ele>
        <time>2016-06-15T23:29:28Z</time>
      </trkpt>
      <trkpt lat="48.0598" lon="-3.94896">
        <ele>105</ele>
        <time>2016-06-15T23:31:28Z</time>
      </trkpt>
      <trkpt lat="48.05994" lon="-3.94895">
        <ele>104</ele>
        <time>2016-06-15T23:33:28Z</time>
      </trkpt>
      <trkpt lat="48.06013" lon="-3.94905">
        <ele>103</ele>
        <time>2016-06-15T23:35:28Z</time>
      </trkpt>
      <trkpt lat="48.06036" lon="-3.94894">
        <ele>104</ele>
        <time>2016-06-15T23:37:28Z</time>
      </trkpt>
      <trkpt lat="48.06036" lon="-3.94877">
        <ele>106</ele>
        <time>2016-06-15T23:39:28Z</time>
      </trkpt>
      <trkpt lat="48.06042" lon="-3.94859">
        <ele>107</ele>
        <time>2016-06-15T23:41:28Z</time>
      </trkpt>
      <trkpt lat="48.06046" lon="-3.94839">
        <ele>109</ele>
        <time>2016-06-15T23:43:28Z</time>
      </trkpt>
      <trkpt lat="48.06063" lon="-3.94818">
        <ele>109</ele>
        <time>2016-06-15T23:45:28Z</time>
      </trkpt>
      <trkpt lat="48.06076" lon="-3.94813">
        <ele>109</ele>
        <time>2016-06-15T23:47:28Z</time>
      </trkpt>
      <trkpt lat="48.06083" lon="-3.94817">
        <ele>108</ele>
        <time>2016-06-15T23:49:28Z</time>
      </trkpt>
      <trkpt lat="48.06086" lon="-3.94808">
        <ele>109</ele>
        <time>2016-06-15T23:51:28Z</time>
      </trkpt>
      <trkpt lat="48.06092" lon="-3.94801">
        <ele>109</ele>
        <time>2016-06-15T23:53:28Z</time>
      </trkpt>
      <trkpt lat="48.06101" lon="-3.94793">
        <ele>110</ele>
        <time>2016-06-15T23:55:28Z</time>
      </trkpt>
      <trkpt lat="48.06109" lon="-3.94789">
        <ele>110</ele>
        <time>2016-06-15T23:57:28Z</time>
      </trkpt>
      <trkpt lat="48.06118" lon="-3.94784">
        <ele>110</ele>
        <time>2016-06-15T23:59:28Z</time>
      </trkpt>
      <trkpt lat="48.06125" lon="-3.94774">
        <ele>111</ele>
        <time>2016-06-16T00:01:28Z</time>
      </trkpt>
      <trkpt lat="48.06134" lon="-3.94766">
        <ele>111</ele>
        <time>2016-06-16T00:03:28Z</time>
      </trkpt>
      <trkpt lat="48.06149" lon="-3.94758">
        <ele>111</ele>
        <time>2016-06-16T00:05:28Z</time>
      </trkpt>
      <trkpt lat="48.06167" lon="-3.94748">
        <ele>110</ele>
        <time>2016-06-16T00:07:28Z</time>
      </trkpt>
      <trkpt lat="48.06176" lon="-3.94739">
        <ele>110</ele>
        <time>2016-06-16T00:09:28Z</time>
      </trkpt>
      <trkpt lat="48.06184" lon="-3.9473">
        <ele>110</ele>
        <time>2016-06-16T00:11:28Z</time>
      </trkpt>
      <trkpt lat="48.06187" lon="-3.94711">
        <ele>112</ele>
        <time>2016-06-16T00:13:28Z</time>
      </trkpt>
      <trkpt lat="48.06184" lon="-3.94694">
        <ele>113</ele>
        <time>2016-06-16T00:15:28Z</time>
      </trkpt>
      <trkpt lat="48.06179" lon="-3.94684">
        <ele>114</ele>
        <time>2016-06-16T00:17:28Z</time>
      </trkpt>
      <trkpt lat="48.06175" lon="-3.94673">
        <ele>115</ele>
        <time>2016-06-16T00:19:28Z</time>
      </trkpt>
      <trkpt lat="48.06168" lon="-3.94665">
        <ele>116</ele>
        <time>2016-06-16T00:21:28Z</time>
      </trkpt>
      <trkpt lat="48.06164" lon="-3.94662">
        <ele>116</ele>
        <time>2016-06-16T00:23:28Z</time>
      </trkpt>
      <trkpt lat="48.06161" lon="-3.94648">
        <ele>117</ele>
        <time>2016-06-16T00:25:28Z</time>
      </trkpt>
      <trkpt lat="48.06172" lon="-3.94625">
        <ele>117</ele>
        <time>2016-06-16T00:27:28Z</time>
      </trkpt>
      <trkpt lat="48.06173" lon="-3.94613">
        <ele>118</ele>
        <time>2016-06-16T00:29:28Z</time>
      </trkpt>
      <trkpt lat="48.06176" lon="-3.94601">
        <ele>118</ele>
        <time>2016-06-16T00:31:28Z</time>
      </trkpt>
      <trkpt lat="48.06182" lon="-3.94594">
        <ele>118</ele>
        <time>2016-06-16T00:33:28Z</time>
      </trkpt>
      <trkpt lat="48.06184" lon="-3.94582">
        <ele>119</ele>
        <time>2016-06-16T00:35:28Z</time>
      </trkpt>
      <trkpt lat="48.06191" lon="-3.94582">
        <ele>118</ele>
        <time>2016-06-16T00:37:28Z</time>
      </trkpt>
      <trkpt lat="48.062" lon="-3.94588">
        <ele>118</ele>
        <time>2016-06-16T00:39:28Z</time>
      </trkpt>
      <trkpt lat="48.06209" lon="-3.94599">
        <ele>117</ele>
        <time>2016-06-16T00:41:28Z</time>
      </trkpt>
      <trkpt lat="48.06215" lon="-3.94612">
        <ele>117</ele>
        <time>2016-06-16T00:43:28Z</time>
      </trkpt>
      <trkpt lat="48.06218" lon="-3.94632">
        <ele>116</ele>
        <time>2016-06-16T00:45:28Z</time>
      </trkpt>
      <trkpt lat="48.06222" lon="-3.94648">
        <ele>115</ele>
        <time>2016-06-16T00:47:28Z</time>
      </trkpt>
      <trkpt lat="48.06231" lon="-3.94666">
        <ele>114</ele>
        <time>2016-06-16T00:49:28Z</time>
      </trkpt>
      <trkpt lat="48.06236" lon="-3.94677">
        <ele>113</ele>
        <time>2016-06-16T00:51:28Z</time>
      </trkpt>
      <trkpt lat="48.06244" lon="-3.94684">
        <ele>112</ele>
        <time>2016-06-16T00:53:28Z</time>
      </trkpt>
      <trkpt lat="48.06254" lon="-3.94689">
        <ele>111</ele>
        <time>2016-06-16T00:55:28Z</time>
      </trkpt>
      <trkpt lat="48.06265" lon="-3.94685">
        <ele>111</ele>
        <time>2016-06-16T00:57:28Z</time>
      </trkpt>
      <trkpt lat="48.06288" lon="-3.94671">
        <ele>113</ele>
        <time>2016-06-16T00:59:28Z</time>
      </trkpt>
      <trkpt lat="48.06308" lon="-3.94668">
        <ele>114</ele>
        <time>2016-06-16T01:01:28Z</time>
      </trkpt>
      <trkpt lat="48.0633" lon="-3.94652">
        <ele>116</ele>
        <time>2016-06-16T01:03:28Z</time>
      </trkpt>
      <trkpt lat="48.06355" lon="-3.94643">
        <ele>117</ele>
        <time>2016-06-16T01:05:28Z</time>
      </trkpt>
      <trkpt lat="48.06391" lon="-3.94633">
        <ele>118</ele>
        <time>2016-06-16T01:07:28Z</time>
      </trkpt>
      <trkpt lat="48.06404" lon="-3.94637">
        <ele>118</ele>
        <time>2016-06-16T01:09:28Z</time>
      </trkpt>
      <trkpt lat="48.06414" lon="-3.94631">
        <ele>119</ele>
        <time>2016-06-16T01:11:28Z</time>
      </trkpt>
      <trkpt lat="48.06429" lon="-3.94615">
        <ele>120</ele>
        <time>2016-06-16T01:13:28Z</time>
      </trkpt>
      <trkpt lat="48.06441" lon="-3.94604">
        <ele>120</ele>
        <time>2016-06-16T01:15:28Z</time>
      </trkpt>
      <trkpt lat="48.06451" lon="-3.94593">
        <ele>120</ele>
        <time>2016-06-16T01:17:28Z</time>
      </trkpt>
      <trkpt lat="48.0646" lon="-3.9457">
        <ele>121</ele>
        <time>2016-06-16T01:19:28Z</time>
      </trkpt>
      <trkpt lat="48.06469" lon="-3.94552">
        <ele>122</ele>
        <time>2016-06-16T01:21:28Z</time>
      </trkpt>
      <trkpt lat="48.06476" lon="-3.94534">
        <ele>123</ele>
        <time>2016-06-16T01:23:28Z</time>
      </trkpt>
      <trkpt lat="48.06482" lon="-3.94524">
        <ele>123</ele>
        <time>2016-06-16T01:25:28Z</time>
      </trkpt>
      <trkpt lat="48.06497" lon="-3.94515">
        <ele>123</ele>
        <time>2016-06-16T01:27:28Z</time>
      </trkpt>
      <trkpt lat="48.06511" lon="-3.94511">
        <ele>121</ele>
        <time>2016-06-16T01:29:28Z</time>
      </trkpt>
      <trkpt lat="48.0652" lon="-3.94505">
        <ele>121</ele>
        <time>2016-06-16T01:31:28Z</time>
      </trkpt>
      <trkpt lat="48.06534" lon="-3.94494">
        <ele>121</ele>
        <time>2016-06-16T01:33:28Z</time>
      </trkpt>
      <trkpt lat="48.0654" lon="-3.94459">
        <ele>126</ele>
        <time>2016-06-16T01:35:28Z</time>
      </trkpt>
      <trkpt lat="48.06544" lon="-3.94449">
        <ele>127</ele>
        <time>2016-06-16T01:37:28Z</time>
      </trkpt>
      <trkpt lat="48.06546" lon="-3.94437">
        <ele>129</ele>
        <time>2016-06-16T01:39:28Z</time>
      </trkpt>
      <trkpt lat="48.06551" lon="-3.94423">
        <ele>131</ele>
        <time>2016-06-16T01:41:28Z</time>
      </trkpt>
      <trkpt lat="48.06553" lon="-3.94412">
        <ele>133</ele>
        <time>2016-06-16T01:43:28Z</time>
      </trkpt>
      <trkpt lat="48.06556" lon="-3.94401">
        <ele>134</ele>
        <time>2016-06-16T01:45:28Z</time>
      </trkpt>
      <trkpt lat="48.06562" lon="-3.94393">
        <ele>135</ele>
        <time>2016-06-16T01:47:28Z</time>
      </trkpt>
      <trkpt lat="48.06571" lon="-3.9439">
        <ele>135</ele>
        <time>2016-06-16T01:49:28Z</time>
      </trkpt>
      <trkpt lat="48.06572" lon="-3.94377">
        <ele>137</ele>
        <time>2016-06-16T01:51:28Z</time>
      </trkpt>
      <trkpt lat="48.06578" lon="-3.94374">
        <ele>137</ele>
        <time>2016-06-16T01:53:28Z</time>
      </trkpt>
      <trkpt lat="48.06582" lon="-3.94372">
        <ele>137</ele>
        <time>2016-06-16T01:55:28Z</time>
      </trkpt>
      <trkpt lat="48.06588" lon="-3.94367">
        <ele>138</ele>
        <time>2016-06-16T01:57:28Z</time>
      </trkpt>
      <trkpt lat="48.06591" lon="-3.94358">
        <ele>139</ele>
        <time>2016-06-16T01:59:28Z</time>
      </trkpt>
      <trkpt lat="48.06594" lon="-3.94345">
        <ele>141</ele>
        <time>2016-06-16T02:01:28Z</time>
      </trkpt>
      <trkpt lat="48.06598" lon="-3.94335">
        <ele>143</ele>
        <time>2016-06-16T02:03:28Z</time>
      </trkpt>
      <trkpt lat="48.06604" lon="-3.94326">
        <ele>143</ele>
        <time>2016-06-16T02:05:28Z</time>
      </trkpt>
      <trkpt lat="48.06609" lon="-3.94318">
        <ele>143</ele>
        <time>2016-06-16T02:07:28Z</time>
      </trkpt>
      <trkpt lat="48.06614" lon="-3.94317">
        <ele>143</ele>
        <time>2016-06-16T02:09:28Z</time>
      </trkpt>
      <trkpt lat="48.06625" lon="-3.94319">
        <ele>143</ele>
        <time>2016-06-16T02:11:28Z</time>
      </trkpt>
      <trkpt lat="48.06653" lon="-3.94333">
        <ele>143</ele>
        <time>2016-06-16T02:13:28Z</time>
      </trkpt>
      <trkpt lat="48.06674" lon="-3.9435">
        <ele>141</ele>
        <time>2016-06-16T02:15:28Z</time>
      </trkpt>
      <trkpt lat="48.06691" lon="-3.94362">
        <ele>138</ele>
        <time>2016-06-16T02:17:28Z</time>
      </trkpt>
      <trkpt lat="48.06705" lon="-3.94377">
        <ele>136</ele>
        <time>2016-06-16T02:19:28Z</time>
      </trkpt>
      <trkpt lat="48.06716" lon="-3.94389">
        <ele>134</ele>
        <time>2016-06-16T02:21:28Z</time>
      </trkpt>
      <trkpt lat="48.06726" lon="-3.94397">
        <ele>132</ele>
        <time>2016-06-16T02:23:28Z</time>
      </trkpt>
      <trkpt lat="48.06737" lon="-3.94404">
        <ele>131</ele>
        <time>2016-06-16T02:25:28Z</time>
      </trkpt>
      <trkpt lat="48.06753" lon="-3.94407">
        <ele>130</ele>
        <time>2016-06-16T02:27:28Z</time>
      </trkpt>
      <trkpt lat="48.06761" lon="-3.94394">
        <ele>131</ele>
        <time>2016-06-16T02:29:28Z</time>
      </trkpt>
      <trkpt lat="48.06787" lon="-3.94313">
        <ele>133</ele>
        <time>2016-06-16T02:31:28Z</time>
      </trkpt>
      <trkpt lat="48.06801" lon="-3.94184">
        <ele>130</ele>
        <time>2016-06-16T02:33:28Z</time>
      </trkpt>
      <trkpt lat="48.06864" lon="-3.94137">
        <ele>125</ele>
        <time>2016-06-16T02:35:28Z</time>
      </trkpt>
      <trkpt lat="48.06925" lon="-3.9411">
        <ele>123</ele>
        <time>2016-06-16T02:37:28Z</time>
      </trkpt>
      <trkpt lat="48.06953" lon="-3.94034">
        <ele>127</ele>
        <time>2016-06-16T02:39:28Z</time>
      </trkpt>
      <trkpt lat="48.06986" lon="-3.93978">
        <ele>127</ele>
        <time>2016-06-16T02:41:28Z</time>
      </trkpt>
      <trkpt lat="48.06999" lon="-3.93994">
        <ele>125</ele>
        <time>2016-06-16T02:43:28Z</time>
      </trkpt>
      <trkpt lat="48.07033" lon="-3.94097">
        <ele>125</ele>
        <time>2016-06-16T02:45:28Z</time>
      </trkpt>
      <trkpt lat="48.0705" lon="-3.94211">
        <ele>127</ele>
        <time>2016-06-16T02:47:28Z</time>
      </trkpt>
      <trkpt lat="48.07061" lon="-3.94255">
        <ele>128</ele>
        <time>2016-06-16T02:49:28Z</time>
      </trkpt>
      <trkpt lat="48.07075" lon="-3.94277">
        <ele>129</ele>
        <time>2016-06-16T02:51:28Z</time>
      </trkpt>
      <trkpt lat="48.07073" lon="-3.94292">
        <ele>129</ele>
        <time>2016-06-16T02:53:28Z</time>
      </trkpt>
      <trkpt lat="48.07042" lon="-3.94329">
        <ele>129</ele>
        <time>2016-06-16T02:55:28Z</time>
      </trkpt>
      <trkpt lat="48.07046" lon="-3.94339">
        <ele>129</ele>
        <time>2016-06-16T02:57:28Z</time>
      </trkpt>
      <trkpt lat="48.07052" lon="-3.94354">
        <ele>131</ele>
        <time>2016-06-16T02:59:28Z</time>
      </trkpt>
      <trkpt lat="48.0707" lon="-3.94371">
        <ele>132</ele>
        <time>2016-06-16T03:01:28Z</time>
      </trkpt>
      <trkpt lat="48.07077" lon="-3.9439">
        <ele>133</ele>
        <time>2016-06-16T03:03:28Z</time>
      </trkpt>
      <trkpt lat="48.07083" lon="-3.94405">
        <ele>134</ele>
        <time>2016-06-16T03:05:28Z</time>
      </trkpt>
      <trkpt lat="48.0713" lon="-3.9443">
        <ele>137</ele>
        <time>2016-06-16T03:07:28Z</time>
      </trkpt>
      <trkpt lat="48.07151" lon="-3.94422">
        <ele>137</ele>
        <time>2016-06-16T03:09:28Z</time>
      </trkpt>
      <trkpt lat="48.07166" lon="-3.94419">
        <ele>137</ele>
        <time>2016-06-16T03:11:28Z</time>
      </trkpt>
      <trkpt lat="48.07182" lon="-3.94413">
        <ele>136</ele>
        <time>2016-06-16T03:13:28Z</time>
      </trkpt>
      <trkpt lat="48.07193" lon="-3.94398">
        <ele>134</ele>
        <time>2016-06-16T03:15:28Z</time>
      </trkpt>
      <trkpt lat="48.07206" lon="-3.94388">
        <ele>133</ele>
        <time>2016-06-16T03:17:28Z</time>
      </trkpt>
      <trkpt lat="48.07218" lon="-3.94385">
        <ele>132</ele>
        <time>2016-06-16T03:19:28Z</time>
      </trkpt>
      <trkpt lat="48.07238" lon="-3.94369">
        <ele>130</ele>
        <time>2016-06-16T03:21:28Z</time>
      </trkpt>
      <trkpt lat="48.07257" lon="-3.94353">
        <ele>129</ele>
        <time>2016-06-16T03:23:28Z</time>
      </trkpt>
      <trkpt lat="48.07279" lon="-3.94344">
        <ele>129</ele>
        <time>2016-06-16T03:25:28Z</time>
      </trkpt>
      <trkpt lat="48.07309" lon="-3.94334">
        <ele>131</ele>
        <time>2016-06-16T03:27:28Z</time>
      </trkpt>
      <trkpt lat="48.07333" lon="-3.94342">
        <ele>132</ele>
        <time>2016-06-16T03:29:28Z</time>
      </trkpt>
      <trkpt lat="48.07359" lon="-3.94356">
        <ele>133</ele>
        <time>2016-06-16T03:31:28Z</time>
      </trkpt>
      <trkpt lat="48.07376" lon="-3.94374">
        <ele>135</ele>
        <time>2016-06-16T03:33:28Z</time>
      </trkpt>
      <trkpt lat="48.07386" lon="-3.94395">
        <ele>136</ele>
        <time>2016-06-16T03:35:28Z</time>
      </trkpt>
      <trkpt lat="48.07401" lon="-3.944">
        <ele>137</ele>
        <time>2016-06-16T03:37:28Z</time>
      </trkpt>
      <trkpt lat="48.07425" lon="-3.94391">
        <ele>138</ele>
        <time>2016-06-16T03:39:28Z</time>
      </trkpt>
      <trkpt lat="48.07451" lon="-3.94387">
        <ele>140</ele>
        <time>2016-06-16T03:41:28Z</time>
      </trkpt>
      <trkpt lat="48.0747" lon="-3.94394">
        <ele>142</ele>
        <time>2016-06-16T03:43:28Z</time>
      </trkpt>
      <trkpt lat="48.07485" lon="-3.94402">
        <ele>144</ele>
        <time>2016-06-16T03:45:28Z</time>
      </trkpt>
      <trkpt lat="48.07499" lon="-3.94404">
        <ele>145</ele>
        <time>2016-06-16T03:47:28Z</time>
      </trkpt>
      <trkpt lat="48.07517" lon="-3.94417">
        <ele>146</ele>
        <time>2016-06-16T03:49:28Z</time>
      </trkpt>
      <trkpt lat="48.07524" lon="-3.94437">
        <ele>146</ele>
        <time>2016-06-16T03:51:28Z</time>
      </trkpt>
      <trkpt lat="48.07515" lon="-3.94458">
        <ele>146</ele>
        <time>2016-06-16T03:53:28Z</time>
      </trkpt>
      <trkpt lat="48.07503" lon="-3.94477">
        <ele>147</ele>
        <time>2016-06-16T03:55:28Z</time>
      </trkpt>
      <trkpt lat="48.07495" lon="-3.94511">
        <ele>148</ele>
        <time>2016-06-16T03:57:28Z</time>
      </trkpt>
      <trkpt lat="48.07485" lon="-3.94547">
        <ele>148</ele>
        <time>2016-06-16T03:59:28Z</time>
      </trkpt>
      <trkpt lat="48.07488" lon="-3.94588">
        <ele>148</ele>
        <time>2016-06-16T04:01:28Z</time>
      </trkpt>
      <trkpt lat="48.0749" lon="-3.94634">
        <ele>147</ele>
        <time>2016-06-16T04:03:28Z</time>
      </trkpt>
      <trkpt lat="48.07491" lon="-3.94669">
        <ele>146</ele>
        <time>2016-06-16T04:05:28Z</time>
      </trkpt>
      <trkpt lat="48.07498" lon="-3.94681">
        <ele>147</ele>
        <time>2016-06-16T04:07:28Z</time>
      </trkpt>
      <trkpt lat="48.07527" lon="-3.94688">
        <ele>147</ele>
        <time>2016-06-16T04:09:28Z</time>
      </trkpt>
      <trkpt lat="48.07566" lon="-3.94705">
        <ele>147</ele>
        <time>2016-06-16T04:11:28Z</time>
      </trkpt>
      <trkpt lat="48.07585" lon="-3.94715">
        <ele>147</ele>
        <time>2016-06-16T04:13:28Z</time>
      </trkpt>
      <trkpt lat="48.07599" lon="-3.9472">
        <ele>147</ele>
        <time>2016-06-16T04:15:28Z</time>
      </trkpt>
      <trkpt lat="48.07608" lon="-3.94733">
        <ele>147</ele>
        <time>2016-06-16T04:17:28Z</time>
      </trkpt>
      <trkpt lat="48.0763" lon="-3.94738">
        <ele>147</ele>
        <time>2016-06-16T04:19:28Z</time>
      </trkpt>
      <trkpt lat="48.07654" lon="-3.94748">
        <ele>147</ele>
        <time>2016-06-16T04:21:28Z</time>
      </trkpt>
      <trkpt lat="48.07681" lon="-3.94757">
        <ele>148</ele>
        <time>2016-06-16T04:23:28Z</time>
      </trkpt>
      <trkpt lat="48.07704" lon="-3.94771">
        <ele>151</ele>
        <time>2016-06-16T04:25:28Z</time>
      </trkpt>
      <trkpt lat="48.07728" lon="-3.94791">
        <ele>153</ele>
        <time>2016-06-16T04:27:28Z</time>
      </trkpt>
      <trkpt lat="48.07751" lon="-3.94807">
        <ele>155</ele>
        <time>2016-06-16T04:29:28Z</time>
      </trkpt>
      <trkpt lat="48.07767" lon="-3.94817">
        <ele>157</ele>
        <time>2016-06-16T04:31:28Z</time>
      </trkpt>
      <trkpt lat="48.07781" lon="-3.94823">
        <ele>158</ele>
        <time>2016-06-16T04:33:28Z</time>
      </trkpt>
      <trkpt lat="48.07793" lon="-3.94826">
        <ele>159</ele>
        <time>2016-06-16T04:35:28Z</time>
      </trkpt>
      <trkpt lat="48.07816" lon="-3.94867">
        <ele>161</ele>
        <time>2016-06-16T04:37:28Z</time>
      </trkpt>
      <trkpt lat="48.07843" lon="-3.94908">
        <ele>163</ele>
        <time>2016-06-16T04:39:28Z</time>
      </trkpt>
      <trkpt lat="48.07864" lon="-3.94943">
        <ele>165</ele>
        <time>2016-06-16T04:41:28Z</time>
      </trkpt>
      <trkpt lat="48.07903" lon="-3.94965">
        <ele>167</ele>
        <time>2016-06-16T04:43:28Z</time>
      </trkpt>
      <trkpt lat="48.07915" lon="-3.94984">
        <ele>168</ele>
        <time>2016-06-16T04:45:28Z</time>
      </trkpt>
      <trkpt lat="48.07912" lon="-3.95007">
        <ele>168</ele>
        <time>2016-06-16T04:47:28Z</time>
      </trkpt>
      <trkpt lat="48.079" lon="-3.95039">
        <ele>167</ele>
        <time>2016-06-16T04:49:28Z</time>
      </trkpt>
      <trkpt lat="48.07898" lon="-3.95055">
        <ele>167</ele>
        <time>2016-06-16T04:51:28Z</time>
      </trkpt>
      <trkpt lat="48.07887" lon="-3.95083">
        <ele>166</ele>
        <time>2016-06-16T04:53:28Z</time>
      </trkpt>
      <trkpt lat="48.0788" lon="-3.95105">
        <ele>166</ele>
        <time>2016-06-16T04:55:28Z</time>
      </trkpt>
      <trkpt lat="48.0788" lon="-3.9512">
        <ele>166</ele>
        <time>2016-06-16T04:57:28Z</time>
      </trkpt>
      <trkpt lat="48.07867" lon="-3.95138">
        <ele>165</ele>
        <time>2016-06-16T04:59:28Z</time>
      </trkpt>
      <trkpt lat="48.07847" lon="-3.95168">
        <ele>166</ele>
        <time>2016-06-16T05:01:28Z</time>
      </trkpt>
      <trkpt lat="48.07815" lon="-3.95207">
        <ele>167</ele>
        <time>2016-06-16T05:03:28Z</time>
      </trkpt>
      <trkpt lat="48.07782" lon="-3.95236">
        <ele>167</ele>
        <time>2016-06-16T05:05:28Z</time>
      </trkpt>
      <trkpt lat="48.07751" lon="-3.95259">
        <ele>167</ele>
        <time>2016-06-16T05:07:28Z</time>
      </trkpt>
      <trkpt lat="48.07724" lon="-3.95274">
        <ele>166</ele>
        <time>2016-06-16T05:09:28Z</time>
      </trkpt>
      <trkpt lat="48.07715" lon="-3.95291">
        <ele>166</ele>
        <time>2016-06-16T05:11:28Z</time>
      </trkpt>
      <trkpt lat="48.07697" lon="-3.95301">
        <ele>166</ele>
        <time>2016-06-16T05:13:28Z</time>
      </trkpt>
      <trkpt lat="48.07699" lon="-3.95323">
        <ele>166</ele>
        <time>2016-06-16T05:15:28Z</time>
      </trkpt>
      <trkpt lat="48.07865" lon="-3.9546">
        <ele>172</ele>
        <time>2016-06-16T05:17:28Z</time>
      </trkpt>
      <trkpt lat="48.07885" lon="-3.95465">
        <ele>173</ele>
        <time>2016-06-16T05:19:28Z</time>
      </trkpt>
      <trkpt lat="48.07915" lon="-3.95498">
        <ele>173</ele>
        <time>2016-06-16T05:21:28Z</time>
      </trkpt>
      <trkpt lat="48.07943" lon="-3.95525">
        <ele>174</ele>
        <time>2016-06-16T05:23:28Z</time>
      </trkpt>
      <trkpt lat="48.07935" lon="-3.95565">
        <ele>173</ele>
        <time>2016-06-16T05:25:28Z</time>
      </trkpt>
      <trkpt lat="48.07925" lon="-3.9559">
        <ele>173</ele>
        <time>2016-06-16T05:27:28Z</time>
      </trkpt>
      <trkpt lat="48.07924" lon="-3.95635">
        <ele>173</ele>
        <time>2016-06-16T05:29:28Z</time>
      </trkpt>
      <trkpt lat="48.07892" lon="-3.95657">
        <ele>171</ele>
        <time>2016-06-16T05:31:28Z</time>
      </trkpt>
      <trkpt lat="48.07755" lon="-3.95953">
        <ele>162</ele>
        <time>2016-06-16T05:33:28Z</time>
      </trkpt>
      <trkpt lat="48.07632" lon="-3.95876">
        <ele>154</ele>
        <time>2016-06-16T05:35:28Z</time>
      </trkpt>
      <trkpt lat="48.07586" lon="-3.95857">
        <ele>152</ele>
        <time>2016-06-16T05:37:28Z</time>
      </trkpt>
      <trkpt lat="48.07552" lon="-3.9585">
        <ele>151</ele>
        <time>2016-06-16T05:39:28Z</time>
      </trkpt>
      <trkpt lat="48.07516" lon="-3.96215">
        <ele>150</ele>
        <time>2016-06-16T05:41:28Z</time>
      </trkpt>
      <trkpt lat="48.07412" lon="-3.96231">
        <ele>153</ele>
        <time>2016-06-16T05:43:28Z</time>
      </trkpt>
      <trkpt lat="48.07381" lon="-3.96238">
        <ele>152</ele>
        <time>2016-06-16T05:45:28Z</time>
      </trkpt>
      <trkpt lat="48.07347" lon="-3.96221">
        <ele>152</ele>
        <time>2016-06-16T05:47:28Z</time>
      </trkpt>
      <trkpt lat="48.07308" lon="-3.9617">
        <ele>152</ele>
        <time>2016-06-16T05:49:28Z</time>
      </trkpt>
      <trkpt lat="48.07302" lon="-3.9607">
        <ele>153</ele>
        <time>2016-06-16T05:51:28Z</time>
      </trkpt>
      <trkpt lat="48.0728" lon="-3.96052">
        <ele>153</ele>
        <time>2016-06-16T05:53:28Z</time>
      </trkpt>
      <trkpt lat="48.07209" lon="-3.96027">
        <ele>152</ele>
        <time>2016-06-16T05:55:28Z</time>
      </trkpt>
      <trkpt lat="48.07196" lon="-3.9605">
        <ele>150</ele>
        <time>2016-06-16T05:57:28Z</time>
      </trkpt>
      <trkpt lat="48.07174" lon="-3.96044">
        <ele>150</ele>
        <time>2016-06-16T05:59:28Z</time>
      </trkpt>
      <trkpt lat="48.07196" lon="-3.95956">
        <ele>152</ele>
        <time>2016-06-16T06:01:28Z</time>
      </trkpt>
      <trkpt lat="48.07168" lon="-3.95948">
        <ele>152</ele>
        <time>2016-06-16T06:03:28Z</time>
      </trkpt>
      <trkpt lat="48.07108" lon="-3.95951">
        <ele>150</ele>
        <time>2016-06-16T06:05:28Z</time>
      </trkpt>
      <trkpt lat="48.06992" lon="-3.95983">
        <ele>151</ele>
        <time>2016-06-16T06:07:28Z</time>
      </trkpt>
      <trkpt lat="48.06959" lon="-3.96111">
        <ele>149</ele>
        <time>2016-06-16T06:09:28Z</time>
      </trkpt>
      <trkpt lat="48.06946" lon="-3.96217">
        <ele>148</ele>
        <time>2016-06-16T06:11:28Z</time>
      </trkpt>
      <trkpt lat="48.06941" lon="-3.9633">
        <ele>149</ele>
        <time>2016-06-16T06:13:28Z</time>
      </trkpt>
      <trkpt lat="48.06942" lon="-3.96519">
        <ele>153</ele>
        <time>2016-06-16T06:15:28Z</time>
      </trkpt>
      <trkpt lat="48.06954" lon="-3.9667">
        <ele>156</ele>
        <time>2016-06-16T06:17:28Z</time>
      </trkpt>
      <trkpt lat="48.0676" lon="-3.96691">
        <ele>156</ele>
        <time>2016-06-16T06:19:28Z</time>
      </trkpt>
      <trkpt lat="48.06719" lon="-3.96678">
        <ele>156</ele>
        <time>2016-06-16T06:21:28Z</time>
      </trkpt>
      <trkpt lat="48.06717" lon="-3.96728">
        <ele>155</ele>
        <time>2016-06-16T06:23:28Z</time>
      </trkpt>
      <trkpt lat="48.06855" lon="-3.9671">
        <ele>155</ele>
        <time>2016-06-16T06:25:28Z</time>
      </trkpt>
      <trkpt lat="48.06855" lon="-3.96643">
        <ele>156</ele>
        <time>2016-06-16T06:27:28Z</time>
      </trkpt>
      <trkpt lat="48.06852" lon="-3.96431">
        <ele>154</ele>
        <time>2016-06-16T06:29:28Z</time>
      </trkpt>
      <trkpt lat="48.06726" lon="-3.96376">
        <ele>156</ele>
        <time>2016-06-16T06:31:28Z</time>
      </trkpt>
      <trkpt lat="48.06698" lon="-3.96685">
        <ele>156</ele>
        <time>2016-06-16T06:33:28Z</time>
      </trkpt>
      <trkpt lat="48.06591" lon="-3.96652">
        <ele>151</ele>
        <time>2016-06-16T06:35:28Z</time>
      </trkpt>
      <trkpt lat="48.06605" lon="-3.96742">
        <ele>151</ele>
        <time>2016-06-16T06:37:28Z</time>
      </trkpt>
      <trkpt lat="48.06596" lon="-3.96912">
        <ele>144</ele>
        <time>2016-06-16T06:39:28Z</time>
      </trkpt>
      <trkpt lat="48.06632" lon="-3.96906">
        <ele>147</ele>
        <time>2016-06-16T06:41:28Z</time>
      </trkpt>
      <trkpt lat="48.06643" lon="-3.96915">
        <ele>147</ele>
        <time>2016-06-16T06:43:28Z</time>
      </trkpt>
      <trkpt lat="48.06645" lon="-3.96934">
        <ele>146</ele>
        <time>2016-06-16T06:45:28Z</time>
      </trkpt>
      <trkpt lat="48.06652" lon="-3.97109">
        <ele>138</ele>
        <time>2016-06-16T06:47:28Z</time>
      </trkpt>
      <trkpt lat="48.06652" lon="-3.97243">
        <ele>132</ele>
        <time>2016-06-16T06:49:28Z</time>
      </trkpt>
      <trkpt lat="48.06619" lon="-3.97348">
        <ele>131</ele>
        <time>2016-06-16T06:51:28Z</time>
      </trkpt>
      <trkpt lat="48.06562" lon="-3.97319">
        <ele>127</ele>
        <time>2016-06-16T06:53:28Z</time>
      </trkpt>
      <trkpt lat="48.06544" lon="-3.9732">
        <ele>127</ele>
        <time>2016-06-16T06:55:28Z</time>
      </trkpt>
      <trkpt lat="48.06493" lon="-3.97342">
        <ele>126</ele>
        <time>2016-06-16T06:57:28Z</time>
      </trkpt>
      <trkpt lat="48.06445" lon="-3.9732">
        <ele>123</ele>
        <time>2016-06-16T06:59:28Z</time>
      </trkpt>
      <trkpt lat="48.06424" lon="-3.97314">
        <ele>121</ele>
        <time>2016-06-16T07:01:28Z</time>
      </trkpt>
      <trkpt lat="48.064" lon="-3.97311">
        <ele>120</ele>
        <time>2016-06-16T07:03:28Z</time>
      </trkpt>
      <trkpt lat="48.0636" lon="-3.97282">
        <ele>117</ele>
        <time>2016-06-16T07:05:28Z</time>
      </trkpt>
      <trkpt lat="48.06346" lon="-3.9729">
        <ele>117</ele>
        <time>2016-06-16T07:07:28Z</time>
      </trkpt>
      <trkpt lat="48.06336" lon="-3.97283">
        <ele>116</ele>
        <time>2016-06-16T07:09:28Z</time>
      </trkpt>
      <trkpt lat="48.06322" lon="-3.97282">
        <ele>115</ele>
        <time>2016-06-16T07:11:28Z</time>
      </trkpt>
      <trkpt lat="48.06307" lon="-3.97286">
        <ele>115</ele>
        <time>2016-06-16T07:13:28Z</time>
      </trkpt>
      <trkpt lat="48.063" lon="-3.97314">
        <ele>116</ele>
        <time>2016-06-16T07:15:28Z</time>
      </trkpt>
      <trkpt lat="48.06293" lon="-3.97357">
        <ele>118</ele>
        <time>2016-06-16T07:17:28Z</time>
      </trkpt>
      <trkpt lat="48.06289" lon="-3.97394">
        <ele>119</ele>
        <time>2016-06-16T07:19:28Z</time>
      </trkpt>
      <trkpt lat="48.0629" lon="-3.97426">
        <ele>120</ele>
        <time>2016-06-16T07:21:28Z</time>
      </trkpt>
      <trkpt lat="48.06291" lon="-3.97438">
        <ele>120</ele>
        <time>2016-06-16T07:23:28Z</time>
      </trkpt>
      <trkpt lat="48.06391" lon="-3.9748">
        <ele>123</ele>
        <time>2016-06-16T07:25:28Z</time>
      </trkpt>
      <trkpt lat="48.0638" lon="-3.97564">
        <ele>123</ele>
        <time>2016-06-16T07:27:28Z</time>
      </trkpt>
      <trkpt lat="48.06379" lon="-3.97647">
        <ele>122</ele>
        <time>2016-06-16T07:29:28Z</time>
      </trkpt>
      <trkpt lat="48.06381" lon="-3.97685">
        <ele>121</ele>
        <time>2016-06-16T07:31:28Z</time>
      </trkpt>
      <trkpt lat="48.06359" lon="-3.97755">
        <ele>119</ele>
        <time>2016-06-16T07:33:28Z</time>
      </trkpt>
      <trkpt lat="48.06325" lon="-3.97818">
        <ele>120</ele>
        <time>2016-06-16T07:35:28Z</time>
      </trkpt>
      <trkpt lat="48.06332" lon="-3.97834">
        <ele>120</ele>
        <time>2016-06-16T07:37:28Z</time>
      </trkpt>
      <trkpt lat="48.06328" lon="-3.9786">
        <ele>120</ele>
        <time>2016-06-16T07:39:28Z</time>
      </trkpt>
      <trkpt lat="48.0634" lon="-3.97876">
        <ele>120</ele>
        <time>2016-06-16T07:41:28Z</time>
      </trkpt>
      <trkpt lat="48.06339" lon="-3.97901">
        <ele>120</ele>
        <time>2016-06-16T07:43:28Z</time>
      </trkpt>
      <trkpt lat="48.06329" lon="-3.9795">
        <ele>119</ele>
        <time>2016-06-16T07:45:28Z</time>
      </trkpt>
      <trkpt lat="48.0634" lon="-3.97975">
        <ele>118</ele>
        <time>2016-06-16T07:47:28Z</time>
      </trkpt>
      <trkpt lat="48.0635" lon="-3.98076">
        <ele>115</ele>
        <time>2016-06-16T07:49:28Z</time>
      </trkpt>
      <trkpt lat="48.06278" lon="-3.9809">
        <ele>112</ele>
        <time>2016-06-16T07:51:28Z</time>
      </trkpt>
      <trkpt lat="48.06229" lon="-3.9811">
        <ele>109</ele>
        <time>2016-06-16T07:53:28Z</time>
      </trkpt>
      <trkpt lat="48.06152" lon="-3.98087">
        <ele>105</ele>
        <time>2016-06-16T07:55:28Z</time>
      </trkpt>
      <trkpt lat="48.0615" lon="-3.98262">
        <ele>100</ele>
        <time>2016-06-16T07:57:28Z</time>
      </trkpt>
      <trkpt lat="48.06169" lon="-3.98372">
        <ele>97</ele>
        <time>2016-06-16T07:59:28Z</time>
      </trkpt>
      <trkpt lat="48.06147" lon="-3.98516">
        <ele>94</ele>
        <time>2016-06-16T08:01:28Z</time>
      </trkpt>
      <trkpt lat="48.06159" lon="-3.98551">
        <ele>93</ele>
        <time>2016-06-16T08:03:28Z</time>
      </trkpt>
      <trkpt lat="48.06184" lon="-3.98575">
        <ele>92</ele>
        <time>2016-06-16T08:05:28Z</time>
      </trkpt>
      <trkpt lat="48.06204" lon="-3.98615">
        <ele>88</ele>
        <time>2016-06-16T08:07:28Z</time>
      </trkpt>
      <trkpt lat="48.0625" lon="-3.98628">
        <ele>85</ele>
        <time>2016-06-16T08:09:28Z</time>
      </trkpt>
      <trkpt lat="48.06257" lon="-3.98668">
        <ele>82</ele>
        <time>2016-06-16T08:11:28Z</time>
      </trkpt>
      <trkpt lat="48.06238" lon="-3.98765">
        <ele>82</ele>
        <time>2016-06-16T08:13:28Z</time>
      </trkpt>
      <trkpt lat="48.06215" lon="-3.9882">
        <ele>86</ele>
        <time>2016-06-16T08:15:28Z</time>
      </trkpt>
      <trkpt lat="48.06223" lon="-3.98924">
        <ele>98</ele>
        <time>2016-06-16T08:17:28Z</time>
      </trkpt>
      <trkpt lat="48.06208" lon="-3.99126">
        <ele>114</ele>
        <time>2016-06-16T08:19:28Z</time>
      </trkpt>
      <trkpt lat="48.06209" lon="-3.99211">
        <ele>114</ele>
        <time>2016-06-16T08:21:28Z</time>
      </trkpt>
      <trkpt lat="48.06216" lon="-3.9924">
        <ele>114</ele>
        <time>2016-06-16T08:23:28Z</time>
      </trkpt>
      <trkpt lat="48.06167" lon="-3.99311">
        <ele>116</ele>
        <time>2016-06-16T08:25:28Z</time>
      </trkpt>
      <trkpt lat="48.0614" lon="-3.99366">
        <ele>115</ele>
        <time>2016-06-16T08:27:28Z</time>
      </trkpt>
      <trkpt lat="48.06127" lon="-3.9938">
        <ele>115</ele>
        <time>2016-06-16T08:29:28Z</time>
      </trkpt>
      <trkpt lat="48.06128" lon="-3.99394">
        <ele>115</ele>
        <time>2016-06-16T08:31:28Z</time>
      </trkpt>
      <trkpt lat="48.0611" lon="-3.99439">
        <ele>116</ele>
        <time>2016-06-16T08:33:28Z</time>
      </trkpt>
      <trkpt lat="48.061" lon="-3.99485">
        <ele>115</ele>
        <time>2016-06-16T08:35:28Z</time>
      </trkpt>
      <trkpt lat="48.06095" lon="-3.99544">
        <ele>113</ele>
        <time>2016-06-16T08:37:28Z</time>
      </trkpt>
      <trkpt lat="48.06081" lon="-3.99618">
        <ele>110</ele>
        <time>2016-06-16T08:39:28Z</time>
      </trkpt>
      <trkpt lat="48.06086" lon="-3.99687">
        <ele>110</ele>
        <time>2016-06-16T08:41:28Z</time>
      </trkpt>
      <trkpt lat="48.0609" lon="-3.99867">
        <ele>120</ele>
        <time>2016-06-16T08:43:28Z</time>
      </trkpt>
      <trkpt lat="48.06085" lon="-3.99941">
        <ele>123</ele>
        <time>2016-06-16T08:45:28Z</time>
      </trkpt>
      <trkpt lat="48.06074" lon="-3.99978">
        <ele>124</ele>
        <time>2016-06-16T08:47:28Z</time>
      </trkpt>
      <trkpt lat="48.0606" lon="-4.00011">
        <ele>125</ele>
        <time>2016-06-16T08:49:28Z</time>
      </trkpt>
      <trkpt lat="48.06042" lon="-4.0001">
        <ele>127</ele>
        <time>2016-06-16T08:51:28Z</time>
      </trkpt>
      <trkpt lat="48.05941" lon="-3.99955">
        <ele>131</ele>
        <time>2016-06-16T08:53:28Z</time>
      </trkpt>
      <trkpt lat="48.05879" lon="-3.99924">
        <ele>133</ele>
        <time>2016-06-16T08:55:28Z</time>
      </trkpt>
      <trkpt lat="48.05865" lon="-3.9991">
        <ele>133</ele>
        <time>2016-06-16T08:57:28Z</time>
      </trkpt>
      <trkpt lat="48.0585" lon="-3.99879">
        <ele>134</ele>
        <time>2016-06-16T08:59:28Z</time>
      </trkpt>
      <trkpt lat="48.05854" lon="-3.99848">
        <ele>134</ele>
        <time>2016-06-16T09:01:28Z</time>
      </trkpt>
      <trkpt lat="48.05848" lon="-3.99828">
        <ele>134</ele>
        <time>2016-06-16T09:03:28Z</time>
      </trkpt>
      <trkpt lat="48.05821" lon="-3.99807">
        <ele>134</ele>
        <time>2016-06-16T09:05:28Z</time>
      </trkpt>
      <trkpt lat="48.05809" lon="-3.99769">
        <ele>134</ele>
        <time>2016-06-16T09:07:28Z</time>
      </trkpt>
      <trkpt lat="48.0581" lon="-3.99714">
        <ele>133</ele>
        <time>2016-06-16T09:09:28Z</time>
      </trkpt>
      <trkpt lat="48.05812" lon="-3.99677">
        <ele>132</ele>
        <time>2016-06-16T09:11:28Z</time>
      </trkpt>
      <trkpt lat="48.05811" lon="-3.99648">
        <ele>132</ele>
        <time>2016-06-16T09:13:28Z</time>
      </trkpt>
      <trkpt lat="48.058" lon="-3.99566">
        <ele>133</ele>
        <time>2016-06-16T09:15:28Z</time>
      </trkpt>
      <trkpt lat="48.05788" lon="-3.99546">
        <ele>132</ele>
        <time>2016-06-16T09:17:28Z</time>
      </trkpt>
      <trkpt lat="48.05761" lon="-3.99521">
        <ele>131</ele>
        <time>2016-06-16T09:19:28Z</time>
      </trkpt>
      <trkpt lat="48.05758" lon="-3.99509">
        <ele>131</ele>
        <time>2016-06-16T09:21:28Z</time>
      </trkpt>
      <trkpt lat="48.0576" lon="-3.9946">
        <ele>130</ele>
        <time>2016-06-16T09:23:28Z</time>
      </trkpt>
      <trkpt lat="48.05772" lon="-3.99398">
        <ele>128</ele>
        <time>2016-06-16T09:25:28Z</time>
      </trkpt>
      <trkpt lat="48.05778" lon="-3.99311">
        <ele>127</ele>
        <time>2016-06-16T09:27:28Z</time>
      </trkpt>
      <trkpt lat="48.05767" lon="-3.99291">
        <ele>126</ele>
        <time>2016-06-16T09:29:28Z</time>
      </trkpt>
      <trkpt lat="48.05697" lon="-3.99281">
        <ele>122</ele>
        <time>2016-06-16T09:31:28Z</time>
      </trkpt>
      <trkpt lat="48.05693" lon="-3.99367">
        <ele>123</ele>
        <time>2016-06-16T09:33:28Z</time>
      </trkpt>
      <trkpt lat="48.05678" lon="-3.99422">
        <ele>121</ele>
        <time>2016-06-16T09:35:28Z</time>
      </trkpt>
      <trkpt lat="48.05609" lon="-3.99416">
        <ele>112</ele>
        <time>2016-06-16T09:37:28Z</time>
      </trkpt>
      <trkpt lat="48.05591" lon="-3.9943">
        <ele>110</ele>
        <time>2016-06-16T09:39:28Z</time>
      </trkpt>
      <trkpt lat="48.05562" lon="-3.9942">
        <ele>110</ele>
        <time>2016-06-16T09:41:28Z</time>
      </trkpt>
      <trkpt lat="48.05459" lon="-3.99396">
        <ele>111</ele>
        <time>2016-06-16T09:43:28Z</time>
      </trkpt>
      <trkpt lat="48.05446" lon="-3.9946">
        <ele>115</ele>
        <time>2016-06-16T09:45:28Z</time>
      </trkpt>
      <trkpt lat="48.05409" lon="-3.99544">
        <ele>119</ele>
        <time>2016-06-16T09:47:28Z</time>
      </trkpt>
      <trkpt lat="48.05388" lon="-3.99531">
        <ele>119</ele>
        <time>2016-06-16T09:49:28Z</time>
      </trkpt>
      <trkpt lat="48.0541" lon="-3.99395">
        <ele>111</ele>
        <time>2016-06-16T09:51:28Z</time>
      </trkpt>
      <trkpt lat="48.05423" lon="-3.99345">
        <ele>107</ele>
        <time>2016-06-16T09:53:28Z</time>
      </trkpt>
      <trkpt lat="48.05419" lon="-3.99317">
        <ele>105</ele>
        <time>2016-06-16T09:55:28Z</time>
      </trkpt>
      <trkpt lat="48.05401" lon="-3.99272">
        <ele>103</ele>
        <time>2016-06-16T09:57:28Z</time>
      </trkpt>
      <trkpt lat="48.05374" lon="-3.99215">
        <ele>103</ele>
        <time>2016-06-16T09:59:28Z</time>
      </trkpt>
      <trkpt lat="48.05375" lon="-3.99178">
        <ele>103</ele>
        <time>2016-06-16T10:01:28Z</time>
      </trkpt>
      <trkpt lat="48.05386" lon="-3.99152">
        <ele>103</ele>
        <time>2016-06-16T10:03:28Z</time>
      </trkpt>
      <trkpt lat="48.05461" lon="-3.99018">
        <ele>102</ele>
        <time>2016-06-16T10:05:28Z</time>
      </trkpt>
      <trkpt lat="48.05496" lon="-3.98847">
        <ele>98</ele>
        <time>2016-06-16T10:07:28Z</time>
      </trkpt>
      <trkpt lat="48.05515" lon="-3.98754">
        <ele>97</ele>
        <time>2016-06-16T10:09:28Z</time>
      </trkpt>
      <trkpt lat="48.05535" lon="-3.98675">
        <ele>89</ele>
        <time>2016-06-16T10:11:28Z</time>
      </trkpt>
      <trkpt lat="48.05532" lon="-3.98654">
        <ele>88</ele>
        <time>2016-06-16T10:13:28Z</time>
      </trkpt>
      <trkpt lat="48.05475" lon="-3.98605">
        <ele>89</ele>
        <time>2016-06-16T10:15:28Z</time>
      </trkpt>
      <trkpt lat="48.05464" lon="-3.98619">
        <ele>92</ele>
        <time>2016-06-16T10:17:28Z</time>
      </trkpt>
      <trkpt lat="48.05455" lon="-3.9864">
        <ele>96</ele>
        <time>2016-06-16T10:19:28Z</time>
      </trkpt>
      <trkpt lat="48.05381" lon="-3.98613">
        <ele>99</ele>
        <time>2016-06-16T10:21:28Z</time>
      </trkpt>
      <trkpt lat="48.05336" lon="-3.98582">
        <ele>101</ele>
        <time>2016-06-16T10:23:28Z</time>
      </trkpt>
      <trkpt lat="48.05307" lon="-3.98505">
        <ele>93</ele>
        <time>2016-06-16T10:25:28Z</time>
      </trkpt>
      <trkpt lat="48.0528" lon="-3.9847">
        <ele>90</ele>
        <time>2016-06-16T10:27:28Z</time>
      </trkpt>
      <trkpt lat="48.05253" lon="-3.98459">
        <ele>89</ele>
        <time>2016-06-16T10:29:28Z</time>
      </trkpt>
      <trkpt lat="48.0524" lon="-3.98492">
        <ele>95</ele>
        <time>2016-06-16T10:31:28Z</time>
      </trkpt>
      <trkpt lat="48.05238" lon="-3.98533">
        <ele>97</ele>
        <time>2016-06-16T10:33:28Z</time>
      </trkpt>
      <trkpt lat="48.05227" lon="-3.98542">
        <ele>98</ele>
        <time>2016-06-16T10:35:28Z</time>
      </trkpt>
      <trkpt lat="48.05191" lon="-3.98507">
        <ele>96</ele>
        <time>2016-06-16T10:37:28Z</time>
      </trkpt>
      <trkpt lat="48.05192" lon="-3.98466">
        <ele>93</ele>
        <time>2016-06-16T10:39:28Z</time>
      </trkpt>
      <trkpt lat="48.05193" lon="-3.9837">
        <ele>84</ele>
        <time>2016-06-16T10:41:28Z</time>
      </trkpt>
      <trkpt lat="48.05187" lon="-3.98359">
        <ele>84</ele>
        <time>2016-06-16T10:43:28Z</time>
      </trkpt>
      <trkpt lat="48.05097" lon="-3.98376">
        <ele>84</ele>
        <time>2016-06-16T10:45:28Z</time>
      </trkpt>
      <trkpt lat="48.05075" lon="-3.98392">
        <ele>84</ele>
        <time>2016-06-16T10:47:28Z</time>
      </trkpt>
      <trkpt lat="48.05092" lon="-3.98323">
        <ele>80</ele>
        <time>2016-06-16T10:49:28Z</time>
      </trkpt>
      <trkpt lat="48.0512" lon="-3.9806">
        <ele>72</ele>
        <time>2016-06-16T10:51:28Z</time>
      </trkpt>
      <trkpt lat="48.0516" lon="-3.97882">
        <ele>81</ele>
        <time>2016-06-16T10:53:28Z</time>
      </trkpt>
      <trkpt lat="48.05178" lon="-3.97851">
        <ele>83</ele>
        <time>2016-06-16T10:55:28Z</time>
      </trkpt>
      <trkpt lat="48.05236" lon="-3.9781">
        <ele>83</ele>
        <time>2016-06-16T10:57:28Z</time>
      </trkpt>
      <trkpt lat="48.05258" lon="-3.97789">
        <ele>84</ele>
        <time>2016-06-16T10:59:28Z</time>
      </trkpt>
      <trkpt lat="48.0527" lon="-3.97765">
        <ele>86</ele>
        <time>2016-06-16T11:01:28Z</time>
      </trkpt>
      <trkpt lat="48.05278" lon="-3.97743">
        <ele>88</ele>
        <time>2016-06-16T11:03:28Z</time>
      </trkpt>
      <trkpt lat="48.05328" lon="-3.97761">
        <ele>87</ele>
        <time>2016-06-16T11:05:28Z</time>
      </trkpt>
      <trkpt lat="48.05345" lon="-3.97776">
        <ele>87</ele>
        <time>2016-06-16T11:07:28Z</time>
      </trkpt>
      <trkpt lat="48.05349" lon="-3.97831">
        <ele>84</ele>
        <time>2016-06-16T11:09:28Z</time>
      </trkpt>
      <trkpt lat="48.05353" lon="-3.97905">
        <ele>79</ele>
        <time>2016-06-16T11:11:28Z</time>
      </trkpt>
      <trkpt lat="48.05352" lon="-3.97968">
        <ele>76</ele>
        <time>2016-06-16T11:13:28Z</time>
      </trkpt>
      <trkpt lat="48.05371" lon="-3.97983">
        <ele>76</ele>
        <time>2016-06-16T11:15:28Z</time>
      </trkpt>
      <trkpt lat="48.05398" lon="-3.97982">
        <ele>77</ele>
        <time>2016-06-16T11:17:28Z</time>
      </trkpt>
      <trkpt lat="48.05428" lon="-3.9797">
        <ele>78</ele>
        <time>2016-06-16T11:19:28Z</time>
      </trkpt>
      <trkpt lat="48.05462" lon="-3.97946">
        <ele>78</ele>
        <time>2016-06-16T11:21:28Z</time>
      </trkpt>
      <trkpt lat="48.05483" lon="-3.98022">
        <ele>77</ele>
        <time>2016-06-16T11:23:28Z</time>
      </trkpt>
      <trkpt lat="48.0552" lon="-3.97981">
        <ele>77</ele>
        <time>2016-06-16T11:25:28Z</time>
      </trkpt>
      <trkpt lat="48.05562" lon="-3.97924">
        <ele>79</ele>
        <time>2016-06-16T11:27:28Z</time>
      </trkpt>
      <trkpt lat="48.05577" lon="-3.97929">
        <ele>79</ele>
        <time>2016-06-16T11:29:28Z</time>
      </trkpt>
      <trkpt lat="48.056" lon="-3.97944">
        <ele>82</ele>
        <time>2016-06-16T11:31:28Z</time>
      </trkpt>
      <trkpt lat="48.05618" lon="-3.97965">
        <ele>85</ele>
        <time>2016-06-16T11:33:28Z</time>
      </trkpt>
      <trkpt lat="48.05648" lon="-3.97974">
        <ele>89</ele>
        <time>2016-06-16T11:35:28Z</time>
      </trkpt>
      <trkpt lat="48.05655" lon="-3.97963">
        <ele>90</ele>
        <time>2016-06-16T11:37:28Z</time>
      </trkpt>
      <trkpt lat="48.05702" lon="-3.97671">
        <ele>90</ele>
        <time>2016-06-16T11:39:28Z</time>
      </trkpt>
      <trkpt lat="48.05712" lon="-3.97561">
        <ele>91</ele>
        <time>2016-06-16T11:41:28Z</time>
      </trkpt>
      <trkpt lat="48.0567" lon="-3.97535">
        <ele>84</ele>
        <time>2016-06-16T11:43:28Z</time>
      </trkpt>
      <trkpt lat="48.0569" lon="-3.97435">
        <ele>87</ele>
        <time>2016-06-16T11:45:28Z</time>
      </trkpt>
      <trkpt lat="48.05699" lon="-3.97402">
        <ele>88</ele>
        <time>2016-06-16T11:47:28Z</time>
      </trkpt>
      <trkpt lat="48.05691" lon="-3.97303">
        <ele>83</ele>
        <time>2016-06-16T11:49:28Z</time>
      </trkpt>
      <trkpt lat="48.05659" lon="-3.97191">
        <ele>82</ele>
        <time>2016-06-16T11:51:28Z</time>
      </trkpt>
      <trkpt lat="48.05759" lon="-3.97181">
        <ele>87</ele>
        <time>2016-06-16T11:53:28Z</time>
      </trkpt>
      <trkpt lat="48.05874" lon="-3.97165">
        <ele>93</ele>
        <time>2016-06-16T11:55:28Z</time>
      </trkpt>
      <trkpt lat="48.05946" lon="-3.97232">
        <ele>96</ele>
        <time>2016-06-16T11:57:28Z</time>
      </trkpt>
      <trkpt lat="48.06048" lon="-3.97208">
        <ele>103</ele>
        <time>2016-06-16T11:59:28Z</time>
      </trkpt>
      <trkpt lat="48.06127" lon="-3.97235">
        <ele>105</ele>
        <time>2016-06-16T12:01:28Z</time>
      </trkpt>
      <trkpt lat="48.06172" lon="-3.97227">
        <ele>106</ele>
        <time>2016-06-16T12:03:28Z</time>
      </trkpt>
      <trkpt lat="48.0619" lon="-3.97243">
        <ele>107</ele>
        <time>2016-06-16T12:05:28Z</time>
      </trkpt>
      <trkpt lat="48.06216" lon="-3.97227">
        <ele>109</ele>
        <time>2016-06-16T12:07:28Z</time>
      </trkpt>
      <trkpt lat="48.06251" lon="-3.97224">
        <ele>110</ele>
        <time>2016-06-16T12:09:28Z</time>
      </trkpt>
      <trkpt lat="48.06285" lon="-3.97226">
        <ele>112</ele>
        <time>2016-06-16T12:11:28Z</time>
      </trkpt>
      <trkpt lat="48.06328" lon="-3.97257">
        <ele>114</ele>
        <time>2016-06-16T12:13:28Z</time>
      </trkpt>
      <trkpt lat="48.06344" lon="-3.97275">
        <ele>116</ele>
        <time>2016-06-16T12:15:28Z</time>
      </trkpt>
      <trkpt lat="48.0634" lon="-3.97289">
        <ele>117</ele>
        <time>2016-06-16T12:17:28Z</time>
      </trkpt>
      <trkpt lat="48.06316" lon="-3.97282">
        <ele>115</ele>
        <time>2016-06-16T12:19:28Z</time>
      </trkpt>
      <trkpt lat="48.06304" lon="-3.97304">
        <ele>116</ele>
        <time>2016-06-16T12:21:28Z</time>
      </trkpt>
      <trkpt lat="48.06295" lon="-3.97332">
        <ele>117</ele>
        <time>2016-06-16T12:23:28Z</time>
      </trkpt>
      <trkpt lat="48.06292" lon="-3.97406">
        <ele>119</ele>
        <time>2016-06-16T12:25:28Z</time>
      </trkpt>
      <trkpt lat="48.063" lon="-3.97439">
        <ele>120</ele>
        <time>2016-06-16T12:27:28Z</time>
      </trkpt>
      <trkpt lat="48.06397" lon="-3.97472">
        <ele>124</ele>
        <time>2016-06-16T12:29:28Z</time>
      </trkpt>
      <trkpt lat="48.06379" lon="-3.97559">
        <ele>123</ele>
        <time>2016-06-16T12:31:28Z</time>
      </trkpt>
      <trkpt lat="48.06367" lon="-3.9759">
        <ele>123</ele>
        <time>2016-06-16T12:33:28Z</time>
      </trkpt>
      <trkpt lat="48.06371" lon="-3.97628">
        <ele>122</ele>
        <time>2016-06-16T12:35:28Z</time>
      </trkpt>
    </trkseg>
  </trk>
</gpx>